Time;durP1;ratioP1;P1;durP2;ratioP2;P2;SDS_P1;SDS_P2;PMS_P1;PMS_P2;Temp;Humidity;BMP_temperature;BMP_pressure;BME280_temperature;BME280_humidity;BME280_pressure;Samples;Min_cycle;Max_cycle;Signal;HPM_P1;HPM_P2
2022/12/15 00:40:12;;;;;;;28.33;11.47;;;;;;;-13.65;95.76;99751.28;4928899;29;20299;-82
2022/12/15 00:42:41;;;;;;;29.73;13.47;;;;;;;-13.78;97.00;99755.53;4930352;29;20291;-82
2022/12/15 00:45:11;;;;;;;29.57;13.70;;;;;;;-13.79;97.01;99756.28;4917626;29;20375;-82
2022/12/15 00:47:38;;;;;;;25.63;12.87;;;;;;;-13.87;96.57;99760.94;4945590;28;20303;-82
2022/12/15 01:20:33;;;;;;;28.10;12.23;;;;;;;-14.15;98.80;99755.81;4925983;29;20796;-81
2022/12/15 01:23:01;;;;;;;29.03;12.07;;;;;;;-14.16;99.32;99768.41;4930406;29;20311;-81
2022/12/15 01:25:28;;;;;;;27.30;13.53;;;;;;;-14.15;99.70;99765.06;4946868;29;20387;-81
2022/12/15 01:27:55;;;;;;;33.30;13.53;;;;;;;-14.09;99.92;99773.06;4931519;29;20310;-81
2022/12/15 01:30:24;;;;;;;24.77;12.90;;;;;;;-14.03;98.08;99779.41;4947173;28;20323;-81
2022/12/15 01:32:51;;;;;;;22.07;11.77;;;;;;;-14.13;97.53;99774.53;4953440;28;20301;-81
2022/12/15 01:35:19;;;;;;;24.80;12.30;;;;;;;-14.14;97.62;99779.50;4962595;28;20295;-81
2022/12/15 01:37:45;;;;;;;26.43;13.17;;;;;;;-14.13;96.31;99779.59;4946580;29;20704;-80
2022/12/15 01:43:03;;;;;;;32.07;13.40;;;;;;;-14.11;95.36;99764.50;4956111;23;20667;-77
2022/12/15 01:45:29;;;;;;;27.53;13.37;;;;;;;-14.25;94.96;99769.56;4953185;28;20294;-77
2022/12/15 01:47:59;;;;;;;28.90;13.77;;;;;;;-14.21;96.02;99776.63;4972344;28;20297;-77
2022/12/15 01:50:27;;;;;;;30.17;12.53;;;;;;;-14.25;95.82;99782.25;4944627;28;20306;-76
2022/12/15 01:52:54;;;;;;;22.30;11.83;;;;;;;-14.35;95.76;99776.53;4936150;28;20783;-77
2022/12/15 01:55:24;;;;;;;28.87;13.07;;;;;;;-14.33;96.17;99783.44;4972289;28;20311;-76
2022/12/15 01:57:53;;;;;;;26.77;12.90;;;;;;;-14.35;95.91;99777.41;4965641;28;20289;-77
2022/12/15 02:00:20;;;;;;;31.10;12.23;;;;;;;-14.22;95.47;99787.53;4966782;28;20294;-77
2022/12/15 02:02:46;;;;;;;24.40;13.00;;;;;;;-14.19;94.35;99791.06;4932828;29;20298;-77
2022/12/15 02:05:13;;;;;;;34.03;13.33;;;;;;;-14.21;93.45;99796.00;4963650;28;20302;-77
2022/12/15 02:07:41;;;;;;;31.13;14.13;;;;;;;-14.31;94.93;99801.28;4952576;28;20389;-77
2022/12/15 02:10:09;;;;;;;30.37;11.97;;;;;;;-14.33;96.28;99800.31;4957454;28;20298;-76
2022/12/15 02:12:38;;;;;;;26.47;13.70;;;;;;;-14.29;96.41;99805.69;4931409;28;20304;-77
2022/12/15 02:15:35;;;;;;;30.30;12.17;;;;;;;-14.19;96.13;99811.34;4977040;28;20301;-77
2022/12/15 02:18:18;;;;;;;27.53;12.17;;;;;;;-14.33;96.56;99813.88;4964200;28;20286;-77
2022/12/15 02:20:51;;;;;;;29.17;13.00;;;;;;;-14.44;97.40;99814.88;4938942;28;20294;-77
2022/12/15 02:23:46;;;;;;;25.23;10.93;;;;;;;-14.45;97.99;99827.50;4936482;28;20301;-77
2022/12/15 02:26:41;;;;;;;28.33;11.32;;;;;;;-14.40;97.34;99821.00;4947018;28;20093;-77
2022/12/15 02:29:43;;;;;;;28.43;11.53;;;;;;;-14.40;96.36;99826.06;4947029;28;20047;-77
2022/12/15 02:32:13;;;;;;;29.10;11.83;;;;;;;-14.41;96.52;99819.25;4950638;28;20321;-77
2022/12/15 02:34:51;;;;;;;30.93;12.33;;;;;;;-14.31;95.43;99834.25;4936848;28;20290;-77
2022/12/15 02:37:33;;;;;;;28.37;13.07;;;;;;;-14.37;93.98;99839.84;4952274;28;20381;-76
2022/12/15 02:40:00;;;;;;;29.93;12.57;;;;;;;-14.58;95.09;99841.00;4955401;28;20365;-76
2022/12/15 02:42:29;;;;;;;26.17;12.43;;;;;;;-14.58;96.67;99838.47;4928506;29;20298;-76
2022/12/15 02:45:03;;;;;;;27.17;12.27;;;;;;;-14.45;96.82;99848.66;4952053;28;20392;-76
2022/12/15 02:47:44;;;;;;;31.77;13.27;;;;;;;-14.37;96.11;99844.03;4936772;28;20298;-77
2022/12/15 02:50:45;;;;;;;26.07;12.53;;;;;;;-14.44;96.01;99845.31;4942002;28;20058;-76
2022/12/15 02:53:30;;;;;;;23.17;12.07;;;;;;;-14.38;97.16;99852.41;4937187;28;20326;-76
2022/12/15 02:56:18;;;;;;;26.40;11.27;;;;;;;-14.47;97.18;99849.31;4958803;28;20298;-76
2022/12/15 02:59:05;;;;;;;32.63;12.27;;;;;;;-14.54;98.59;99843.88;4937076;28;20663;-76
2022/12/15 03:01:36;;;;;;;23.80;12.10;;;;;;;-14.52;99.11;99839.75;4958186;28;20357;-76
2022/12/15 03:04:04;;;;;;;34.27;12.73;;;;;;;-14.51;99.87;99840.63;4949919;28;20306;-77
2022/12/15 03:06:31;;;;;;;30.13;12.33;;;;;;;-14.37;99.79;99841.50;4969578;28;20298;-77
2022/12/15 03:08:58;;;;;;;31.30;13.17;;;;;;;-14.25;98.45;99824.53;4940997;28;20398;-77
2022/12/15 03:11:24;;;;;;;24.50;13.80;;;;;;;-14.03;96.73;99826.75;4964016;28;20799;-76
2022/12/15 03:13:52;;;;;;;24.97;12.37;;;;;;;-14.17;96.66;99825.00;4938740;28;20317;-77
2022/12/15 03:16:19;;;;;;;30.97;12.47;;;;;;;-14.13;96.30;99822.75;4954819;28;20302;-77
2022/12/15 03:18:46;;;;;;;26.47;13.77;;;;;;;-14.24;96.89;99831.34;4956218;28;20340;-76
2022/12/15 03:21:13;;;;;;;30.50;13.87;;;;;;;-14.30;98.23;99833.47;4967592;28;20303;-78
2022/12/15 03:23:39;;;;;;;28.27;12.20;;;;;;;-14.30;99.89;99839.44;4956622;28;20306;-77
2022/12/15 03:26:06;;;;;;;29.43;12.33;;;;;;;-14.21;100.00;99829.91;4926401;28;20293;-77
2022/12/15 03:28:33;;;;;;;37.67;14.27;;;;;;;-14.07;99.97;99833.28;4954721;28;20671;-77
2022/12/15 03:31:00;;;;;;;29.33;14.70;;;;;;;-13.94;98.12;99827.34;4945215;28;20301;-77
2022/12/15 03:33:27;;;;;;;33.37;15.10;;;;;;;-13.84;97.98;99832.19;4949838;28;20302;-77
2022/12/15 03:35:54;;;;;;;34.00;16.97;;;;;;;-14.08;98.93;99829.00;4964679;28;20793;-77
2022/12/15 03:38:21;;;;;;;32.03;14.53;;;;;;;-14.03;100.00;99830.19;4947214;28;20310;-76
2022/12/15 03:40:48;;;;;;;34.33;14.83;;;;;;;-14.03;100.00;99837.78;4966530;28;20428;-77
2022/12/15 03:43:14;;;;;;;36.13;17.03;;;;;;;-14.00;100.00;99835.44;4941641;28;20305;-76
2022/12/15 03:45:42;;;;;;;35.57;15.43;;;;;;;-13.94;100.00;99835.81;4964704;28;20301;-77
2022/12/15 03:48:09;;;;;;;34.93;14.90;;;;;;;-13.86;100.00;99835.44;4954447;28;20987;-77
2022/12/15 03:50:36;;;;;;;39.20;14.70;;;;;;;-13.86;100.00;99838.84;4964362;28;20301;-77
2022/12/15 03:53:03;;;;;;;33.90;14.33;;;;;;;-13.83;100.00;99843.22;4966558;28;20301;-78
2022/12/15 03:55:30;;;;;;;37.23;15.23;;;;;;;-13.80;100.00;99843.41;4954691;28;20368;-77
2022/12/15 03:57:57;;;;;;;40.27;15.33;;;;;;;-13.79;100.00;99846.03;4948083;28;20298;-77
2022/12/15 04:00:24;;;;;;;37.93;15.13;;;;;;;-13.75;100.00;99850.53;4958909;28;20305;-76
2022/12/15 04:02:51;;;;;;;37.83;16.47;;;;;;;-13.70;100.00;99856.78;4936466;29;20295;-77
2022/12/15 04:05:24;;;;;;;33.43;13.90;;;;;;;-13.62;100.00;99857.22;4940463;28;20352;-76
2022/12/15 04:07:52;;;;;;;37.17;14.63;;;;;;;-13.57;100.00;99863.50;4936929;28;20295;-76
2022/12/15 04:10:19;;;;;;;38.17;16.57;;;;;;;-13.44;100.00;99867.69;4952554;28;20286;-76
2022/12/15 04:12:46;;;;;;;37.83;16.97;;;;;;;-13.46;100.00;99867.56;4937902;28;20401;-76
2022/12/15 04:15:13;;;;;;;37.17;14.80;;;;;;;-13.46;100.00;99875.19;4919197;29;20295;-76
2022/12/15 04:17:40;;;;;;;36.90;16.27;;;;;;;-13.39;100.00;99872.22;4962604;28;20357;-76
2022/12/15 04:20:10;;;;;;;41.57;16.90;;;;;;;-13.29;100.00;99881.28;4966689;28;20294;-76
2022/12/15 04:22:39;;;;;;;34.47;17.73;;;;;;;-13.19;100.00;99880.22;4939868;28;20298;-76
2022/12/15 05:32:06;;;;;;;56.37;23.60;;;;;;;-11.65;100.00;99932.34;4963254;28;20305;-76
2022/12/15 05:34:33;;;;;;;53.87;22.77;;;;;;;-11.67;100.00;99939.94;4967014;28;20799;-76
2022/12/15 05:37:02;;;;;;;54.70;24.23;;;;;;;-11.59;100.00;99931.84;4947159;28;20298;-76
2022/12/15 05:39:29;;;;;;;52.60;23.40;;;;;;;-11.63;100.00;99944.38;4941842;28;20300;-76
2022/12/15 05:41:55;;;;;;;47.47;23.30;;;;;;;-11.60;100.00;99947.88;4937700;28;20675;-76
2022/12/15 05:44:23;;;;;;;48.47;22.80;;;;;;;-11.56;100.00;99945.59;4952986;28;20660;-76
2022/12/15 05:46:50;;;;;;;57.23;23.30;;;;;;;-11.56;100.00;99962.56;4938564;28;20306;-77
2022/12/15 05:49:17;;;;;;;58.17;24.50;;;;;;;-11.41;100.00;99965.97;4951989;28;20798;-76
2022/12/15 05:51:45;;;;;;;52.73;23.60;;;;;;;-11.46;100.00;99959.72;4946169;28;20296;-77
2022/12/15 05:54:16;;;;;;;50.27;20.23;;;;;;;-11.41;100.00;99977.03;4929725;28;20352;-76
2022/12/15 05:56:44;;;;;;;55.30;21.60;;;;;;;-11.41;100.00;99959.19;4960947;28;20984;-76
2022/12/15 05:59:10;;;;;;;51.83;20.07;;;;;;;-11.32;100.00;99947.75;4937849;28;20290;-76
2022/12/15 06:01:37;;;;;;;57.90;22.13;;;;;;;-11.30;100.00;99954.69;4939649;28;20290;-76
2022/12/15 06:04:04;;;;;;;58.20;23.13;;;;;;;-11.23;100.00;99955.91;4945058;28;20289;-76
2022/12/15 06:06:31;;;;;;;52.40;20.30;;;;;;;-11.19;100.00;99968.88;4935719;28;20375;-76
2022/12/15 06:08:58;;;;;;;46.60;22.33;;;;;;;-11.26;100.00;99976.13;4967649;28;20289;-76
2022/12/15 06:11:25;;;;;;;46.77;22.73;;;;;;;-10.92;100.00;99966.97;4958373;28;20306;-76
2022/12/15 06:13:53;;;;;;;52.27;21.13;;;;;;;-11.07;100.00;99976.34;4916162;29;20357;-76
2022/12/15 06:16:21;;;;;;;47.87;20.20;;;;;;;-11.20;100.00;99979.00;4962084;28;20304;-76
2022/12/15 06:18:51;;;;;;;43.57;20.97;;;;;;;-11.13;100.00;99976.00;4952394;28;20291;-76
2022/12/15 06:21:24;;;;;;;49.67;20.87;;;;;;;-11.11;100.00;99964.19;4920212;28;20676;-76
2022/12/15 06:23:51;;;;;;;53.83;22.47;;;;;;;-11.17;100.00;99967.31;4963935;28;20289;-76
2022/12/15 06:26:28;;;;;;;54.43;23.43;;;;;;;-11.09;100.00;99966.06;4933459;28;20696;-75
2022/12/15 06:28:57;;;;;;;51.00;22.37;;;;;;;-10.99;100.00;99982.72;4953916;28;20385;-75
2022/12/15 06:31:24;;;;;;;49.63;22.80;;;;;;;-11.18;100.00;99990.16;4938299;28;20295;-75
2022/12/15 06:33:52;;;;;;;44.73;22.17;;;;;;;-11.07;100.00;99995.06;4956712;28;20310;-76
2022/12/15 06:36:27;;;;;;;43.73;20.83;;;;;;;-11.12;100.00;99990.50;4946407;28;22226;-76
2022/12/15 06:38:57;;;;;;;51.00;21.90;;;;;;;-11.07;100.00;99989.97;4946426;28;20294;-76
2022/12/15 06:41:24;;;;;;;45.20;21.90;;;;;;;-11.08;100.00;99983.09;4952987;28;20973;-76
2022/12/15 06:43:57;;;;;;;58.53;22.83;;;;;;;-11.11;100.00;99984.59;4944043;28;20286;-76
2022/12/15 06:46:25;;;;;;;53.00;21.27;;;;;;;-11.06;100.00;99978.09;4934827;28;20306;-76
2022/12/15 06:48:52;;;;;;;52.87;21.23;;;;;;;-10.86;100.00;99984.25;4944398;28;20718;-76
2022/12/15 06:51:18;;;;;;;46.97;20.90;;;;;;;-10.84;100.00;100006.50;4946469;28;20365;-76
2022/12/15 06:53:49;;;;;;;42.73;20.77;;;;;;;-10.89;100.00;100007.94;4916291;29;20295;-77
2022/12/15 06:56:27;;;;;;;45.57;20.77;;;;;;;-10.94;100.00;100017.00;4947401;28;20337;-76
2022/12/15 06:59:00;;;;;;;39.80;18.53;;;;;;;-10.94;100.00;100009.34;4954096;28;20301;-76
2022/12/15 07:01:27;;;;;;;53.00;21.93;;;;;;;-10.90;100.00;100018.06;4959248;28;20343;-77
2022/12/15 07:03:54;;;;;;;57.40;21.10;;;;;;;-10.87;100.00;100025.88;4935090;28;20290;-76
2022/12/15 07:06:21;;;;;;;45.57;19.37;;;;;;;-10.79;100.00;100029.72;4957172;28;20636;-76
2022/12/15 07:08:53;;;;;;;57.63;22.87;;;;;;;-10.80;100.00;100033.06;4929706;28;20298;-76
2022/12/15 07:11:20;;;;;;;44.30;19.10;;;;;;;-10.85;100.00;100040.44;4957374;28;20297;-76
2022/12/15 07:13:51;;;;;;;43.47;19.17;;;;;;;-10.73;100.00;100041.94;4940256;28;20807;-76
2022/12/15 07:16:19;;;;;;;49.13;21.00;;;;;;;-10.55;100.00;100058.22;4941251;28;20305;-76
2022/12/15 07:18:46;;;;;;;59.30;20.57;;;;;;;-10.57;100.00;100055.59;4957641;28;20290;-76
2022/12/15 07:21:13;;;;;;;41.17;18.60;;;;;;;-10.55;100.00;100042.91;4967434;28;20313;-77
2022/12/15 07:23:39;;;;;;;47.53;19.67;;;;;;;-10.56;100.00;100061.56;4941377;28;20365;-76
2022/12/15 07:26:23;;;;;;;49.97;20.10;;;;;;;-10.37;100.00;100063.41;4956517;28;20850;-76
2022/12/15 07:28:51;;;;;;;45.47;20.40;;;;;;;-10.50;100.00;100059.34;4954334;28;20047;-77
2022/12/15 07:31:18;;;;;;;43.00;20.60;;;;;;;-10.47;100.00;100059.50;4940973;28;20286;-76
2022/12/15 07:33:47;;;;;;;43.40;18.83;;;;;;;-10.49;100.00;100058.56;4937663;29;20287;-76
2022/12/15 07:36:14;;;;;;;46.93;19.00;;;;;;;-10.51;100.00;100057.56;4933285;28;20377;-77
2022/12/15 07:38:40;;;;;;;56.50;20.90;;;;;;;-10.57;100.00;100063.25;4953960;28;20680;-77
2022/12/15 07:41:08;;;;;;;44.90;19.87;;;;;;;-10.38;100.00;100064.22;4940915;28;20309;-76
2022/12/15 07:43:36;;;;;;;48.20;19.87;;;;;;;-10.45;100.00;100069.78;5035953;23;20318;-81
2022/12/15 07:46:03;;;;;;;47.37;20.30;;;;;;;-10.42;100.00;100073.41;4941478;29;20867;-82
2022/12/15 07:48:31;;;;;;;49.80;20.73;;;;;;;-10.34;100.00;100074.69;4925777;28;20333;-81
2022/12/15 07:50:58;;;;;;;46.27;20.50;;;;;;;-10.25;100.00;100084.50;4951188;28;20297;-81
2022/12/15 07:53:35;;;;;;;42.57;20.33;;;;;;;-10.30;100.00;100083.38;4925810;29;20291;-81
2022/12/15 07:56:04;;;;;;;46.37;19.97;;;;;;;-10.24;100.00;100087.13;4923841;29;20284;-80
2022/12/15 07:58:35;;;;;;;46.00;20.93;;;;;;;-10.28;100.00;100081.78;4924362;29;20279;-83
2022/12/15 08:01:04;;;;;;;50.37;20.93;;;;;;;-10.28;100.00;100085.22;4908174;29;20402;-81
2022/12/15 08:03:31;;;;;;;49.10;20.83;;;;;;;-10.23;100.00;100091.44;4907124;29;20327;-81
2022/12/15 08:06:10;;;;;;;47.63;20.27;;;;;;;-10.22;100.00;100090.63;4937883;29;20319;-81
2022/12/15 08:08:37;;;;;;;51.67;20.97;;;;;;;-10.05;100.00;100096.59;4873145;29;20300;-81
2022/12/15 08:11:05;;;;;;;44.03;20.97;;;;;;;-9.94;100.00;100099.69;4903049;28;20354;-81
2022/12/15 08:13:35;;;;;;;48.07;20.90;;;;;;;-9.99;100.00;100096.94;4907460;29;20299;-81
2022/12/15 08:16:22;;;;;;;42.17;20.57;;;;;;;-9.90;100.00;100100.75;4914792;29;20320;-82
2022/12/15 08:18:49;;;;;;;47.40;20.37;;;;;;;-9.79;100.00;100097.06;4913956;29;20296;-81
2022/12/15 08:21:15;;;;;;;52.20;21.50;;;;;;;-9.84;100.00;100099.38;4925505;29;20304;-82
2022/12/15 08:23:42;;;;;;;52.00;21.30;;;;;;;-9.72;100.00;100104.25;4909458;29;20303;-80
2022/12/15 08:26:12;;;;;;;44.50;20.87;;;;;;;-9.63;100.00;100111.50;4925667;29;20872;-81
2022/12/15 08:28:40;;;;;;;52.20;21.70;;;;;;;-9.57;100.00;100111.81;4944843;29;20275;-81
2022/12/15 08:31:09;;;;;;;45.90;21.17;;;;;;;-9.67;100.00;100121.59;4910357;29;20786;-81
2022/12/15 08:33:36;;;;;;;44.37;21.27;;;;;;;-9.59;100.00;100126.19;4910800;29;20303;-81
2022/12/15 08:36:06;;;;;;;50.00;22.20;;;;;;;-9.53;100.00;100129.06;4929163;29;20322;-81
2022/12/15 08:38:37;;;;;;;47.17;21.63;;;;;;;-9.51;100.00;100136.00;4961000;29;20287;-81
2022/12/15 08:41:08;;;;;;;44.05;22.25;;;;;;;-9.52;100.00;100139.38;4929254;29;20852;-81
2022/12/15 08:43:35;;;;;;;48.13;20.07;;;;;;;-9.34;100.00;100144.53;4903125;29;20292;-82
2022/12/15 08:46:02;;;;;;;40.80;20.17;;;;;;;-9.37;100.00;100155.50;4901069;29;20284;-82
2022/12/15 08:48:29;;;;;;;55.30;21.80;;;;;;;-9.34;100.00;100149.63;4922910;29;20309;-81
2022/12/15 08:50:57;;;;;;;49.40;24.20;;;;;;;-9.30;100.00;100143.00;4911967;28;20294;-82
2022/12/15 08:53:25;;;;;;;49.90;21.60;;;;;;;-9.36;100.00;100149.56;4941205;29;20295;-82
2022/12/15 08:56:04;;;;;;;40.73;20.43;;;;;;;-9.34;100.00;100144.53;4926887;29;20302;-81
2022/12/15 08:58:31;;;;;;;45.17;21.07;;;;;;;-9.34;100.00;100141.97;4925459;29;20353;-82
2022/12/15 09:01:12;;;;;;;48.27;22.27;;;;;;;-9.34;100.00;100143.66;4924920;28;20286;-81
2022/12/15 09:03:48;;;;;;;53.07;20.97;;;;;;;-9.26;100.00;100145.78;4893902;29;20642;-81
2022/12/15 09:06:17;;;;;;;50.03;19.37;;;;;;;-9.27;100.00;100149.16;4908386;29;20291;-81
2022/12/15 09:08:44;;;;;;;48.23;19.60;;;;;;;-9.32;100.00;100159.97;4901579;29;20300;-80
2022/12/15 09:11:16;;;;;;;47.80;21.93;;;;;;;-9.30;100.00;100159.25;4902777;29;20335;-81
2022/12/15 09:13:43;;;;;;;50.93;22.40;;;;;;;-9.18;100.00;100166.63;4890264;29;20296;-82
2022/12/15 09:16:13;;;;;;;43.87;20.57;;;;;;;-9.16;100.00;100160.81;4906079;29;20296;-82
2022/12/15 09:18:50;;;;;;;43.60;20.27;;;;;;;-9.02;100.00;100164.03;4906199;29;20307;-82
2022/12/15 09:21:21;;;;;;;46.90;21.27;;;;;;;-9.03;100.00;100166.53;4941165;29;20327;-82
2022/12/15 09:23:50;;;;;;;47.87;22.27;;;;;;;-9.01;100.00;100168.34;4943354;29;20331;-83
2022/12/15 09:26:19;;;;;;;42.97;19.93;;;;;;;-8.98;100.00;100173.63;4908393;29;20646;-82
2022/12/15 09:28:45;;;;;;;50.80;21.17;;;;;;;-9.00;100.00;100161.53;4935718;29;20301;-82
2022/12/15 09:31:22;;;;;;;50.13;22.17;;;;;;;-8.95;100.00;100160.09;4911643;29;20327;-81
2022/12/15 09:33:51;;;;;;;42.33;21.70;;;;;;;-8.89;100.00;100161.28;4918030;29;20677;-81
2022/12/15 09:36:18;;;;;;;45.07;22.87;;;;;;;-8.77;100.00;100167.78;4918206;29;20313;-81
2022/12/15 09:38:45;;;;;;;53.53;23.60;;;;;;;-8.80;100.00;100166.84;4912470;29;20302;-81
2022/12/15 09:41:11;;;;;;;48.33;22.50;;;;;;;-8.67;100.00;100173.41;4913721;29;20315;-81
2022/12/15 09:43:59;;;;;;;47.23;22.00;;;;;;;-8.64;100.00;100171.03;4901429;29;20307;-81
2022/12/15 09:46:40;;;;;;;52.90;22.73;;;;;;;-8.53;100.00;100181.78;4919308;29;20315;-82
2022/12/15 09:49:21;;;;;;;43.20;21.13;;;;;;;-8.38;100.00;100181.63;4932564;29;20806;-82
2022/12/15 09:52:11;;;;;;;50.37;22.83;;;;;;;-8.36;100.00;100183.44;4921066;29;20291;-82
2022/12/15 09:54:40;;;;;;;48.23;22.27;;;;;;;-8.26;100.00;100179.59;4936769;29;20287;-82
2022/12/15 09:57:22;;;;;;;50.00;21.77;;;;;;;-8.08;100.00;100180.44;4894034;29;20299;-80
2022/12/15 10:00:01;;;;;;;50.53;22.13;;;;;;;-8.10;100.00;100188.88;4908855;29;20306;-82
2022/12/15 10:02:44;;;;;;;48.27;21.03;;;;;;;-7.86;100.00;100179.75;4935703;29;20302;-80
2022/12/15 10:05:34;;;;;;;41.63;20.63;;;;;;;-7.79;100.00;100175.78;4893914;29;20327;-81
2022/12/15 10:08:21;;;;;;;46.33;21.13;;;;;;;-7.74;100.00;100172.59;4913144;29;20288;-81
2022/12/15 10:10:57;;;;;;;52.37;22.47;;;;;;;-7.63;100.00;100177.34;4886758;29;20291;-81
2022/12/15 10:13:30;;;;;;;46.20;23.20;;;;;;;-7.55;100.00;100176.84;4917177;29;20649;-81
2022/12/15 10:16:04;;;;;;;46.45;23.80;;;;;;;-7.32;100.00;100174.38;4886430;29;20288;-81
2022/12/15 10:18:38;;;;;;;50.35;22.75;;;;;;;-7.20;100.00;100180.94;4898944;29;20048;-81
2022/12/15 10:21:08;;;;;;;44.00;22.73;;;;;;;-7.18;100.00;100170.72;4897566;29;20046;-80
2022/12/15 10:23:35;;;;;;;54.43;22.73;;;;;;;-7.02;100.00;100172.25;4916966;29;20295;-82
2022/12/15 10:26:22;;;;;;;56.40;22.73;;;;;;;-6.90;100.00;100167.59;4885521;29;20292;-80
2022/12/15 10:29:09;;;;;;;51.17;21.17;;;;;;;-6.81;100.00;100168.91;4900941;29;20689;-81
2022/12/15 10:31:47;;;;;;;45.57;21.03;;;;;;;-6.64;100.00;100164.44;4901298;29;20299;-81
2022/12/15 10:34:24;;;;;;;47.97;24.13;;;;;;;-6.54;100.00;100163.97;4903487;29;20417;-81
2022/12/15 10:36:51;;;;;;;46.97;23.23;;;;;;;-6.40;100.00;100164.50;4917019;29;20712;-80
2022/12/15 10:39:22;;;;;;;49.53;23.40;;;;;;;-6.26;100.00;100162.47;4920246;29;20135;-82
2022/12/15 10:42:09;;;;;;;47.83;23.53;;;;;;;-6.05;100.00;100158.16;4931541;29;20054;-83
2022/12/15 10:44:38;;;;;;;50.00;21.83;;;;;;;-6.13;100.00;100162.16;4925195;29;20523;-81
2022/12/15 10:47:13;;;;;;;45.83;20.70;;;;;;;-6.03;100.00;100158.22;4930747;29;20660;-82
2022/12/15 10:49:43;;;;;;;43.17;21.93;;;;;;;-5.93;100.00;100162.88;4903863;29;20303;-82
2022/12/15 10:52:36;;;;;;;44.92;21.70;;;;;;;-5.86;100.00;100164.84;4913984;29;20124;-81
2022/12/15 10:55:42;;;;;;;44.10;21.37;;;;;;;-5.94;100.00;100170.56;4916879;29;20094;-82
2022/12/15 10:58:20;;;;;;;43.40;20.77;;;;;;;-5.89;100.00;100171.53;4899899;29;20498;-84
2022/12/15 11:01:07;;;;;;;40.53;18.97;;;;;;;-5.83;100.00;100175.22;4910477;29;20040;-84
2022/12/15 11:03:41;;;;;;;48.93;22.47;;;;;;;-5.57;100.00;100175.31;4908397;29;20051;-83
2022/12/15 11:06:30;;;;;;;46.38;21.95;;;;;;;-5.44;100.00;100172.34;4909480;29;20054;-83
2022/12/15 11:09:08;;;;;;;39.97;19.80;;;;;;;-5.48;100.00;100173.06;4907308;29;20048;-83
2022/12/15 11:14:49;;;;;;;43.80;20.43;;;;;;;-5.21;100.00;100174.06;4925581;29;20572;-83
2022/12/15 11:17:20;;;;;;;47.67;21.13;;;;;;;-5.17;100.00;100180.16;4901527;29;20043;-83
2022/12/15 11:19:55;;;;;;;40.60;21.27;;;;;;;-5.28;100.00;100182.38;4913509;29;20700;-82
2022/12/15 11:22:45;;;;;;;43.80;20.83;;;;;;;-5.20;100.00;100178.38;4920546;29;20040;-83
2022/12/15 11:25:23;;;;;;;45.33;20.97;;;;;;;-5.20;100.00;100186.09;4905760;29;20042;-83
2022/12/15 11:27:55;;;;;;;45.90;21.87;;;;;;;-5.13;100.00;100182.91;4918177;29;20036;-82
2022/12/15 11:30:30;;;;;;;47.80;21.03;;;;;;;-5.15;100.00;100184.53;4901764;29;20503;-83
2022/12/15 11:32:58;;;;;;;43.43;21.63;;;;;;;-5.15;100.00;100183.66;4909594;29;20028;-82
2022/12/15 11:35:41;;;;;;;41.03;21.33;;;;;;;-5.07;100.00;100191.66;4905225;29;20062;-83
2022/12/15 11:38:18;;;;;;;45.83;22.33;;;;;;;-4.91;100.00;100193.94;4902421;29;20055;-83
2022/12/15 11:40:45;;;;;;;42.73;21.70;;;;;;;-4.91;100.00;100186.22;4897524;29;20048;-83
2022/12/15 11:43:44;;;;;;;46.23;21.87;;;;;;;-4.90;100.00;100181.09;4917062;29;20036;-83
2022/12/15 11:46:23;;;;;;;44.17;23.83;;;;;;;-4.82;100.00;100182.22;4946417;29;20048;-84
2022/12/15 11:48:55;;;;;;;47.30;24.02;;;;;;;-4.74;100.00;100182.50;4933142;29;20053;-84
2022/12/15 11:51:42;;;;;;;44.33;24.13;;;;;;;-4.78;100.00;100183.22;4934243;29;20043;-83
2022/12/15 11:54:17;;;;;;;46.47;23.03;;;;;;;-4.82;100.00;100184.81;4926178;29;20040;-83
2022/12/15 11:56:52;;;;;;;48.27;23.53;;;;;;;-4.85;100.00;100189.00;4926430;29;20564;-83
2022/12/15 11:59:22;;;;;;;44.03;21.60;;;;;;;-4.86;100.00;100188.13;4933426;29;20489;-83
2022/12/15 12:02:07;;;;;;;43.87;21.63;;;;;;;-4.81;100.00;100188.25;4928077;29;20039;-83
2022/12/15 12:05:00;;;;;;;51.47;26.80;;;;;;;-4.87;100.00;100190.66;4939499;29;20055;-83
2022/12/15 12:07:41;;;;;;;37.13;20.63;;;;;;;-4.85;100.00;100189.88;4906731;29;20050;-83
2022/12/15 12:10:46;;;;;;;50.50;26.10;;;;;;;-4.89;100.00;100184.56;4922275;29;20563;-83
2022/12/15 12:13:23;;;;;;;45.47;25.10;;;;;;;-4.86;100.00;100188.13;4941815;29;20482;-83
2022/12/15 12:16:10;;;;;;;38.07;21.53;;;;;;;-4.73;100.00;100197.13;4911942;28;20113;-83
2022/12/15 12:18:43;;;;;;;36.43;20.03;;;;;;;-4.60;100.00;100203.56;4925591;29;20051;-83
2022/12/15 12:21:21;;;;;;;36.97;20.20;;;;;;;-4.67;100.00;100201.63;4935049;29;20055;-83
2022/12/15 12:23:52;;;;;;;45.60;20.80;;;;;;;-4.76;100.00;100193.59;4927890;29;20091;-83
2022/12/15 12:26:28;;;;;;;40.07;19.50;;;;;;;-4.80;100.00;100197.75;4890651;29;20539;-82
2022/12/15 12:29:11;;;;;;;41.33;20.67;;;;;;;-4.66;100.00;100195.63;4919169;29;20039;-82
2022/12/15 12:31:56;;;;;;;36.67;19.27;;;;;;;-4.61;100.00;100206.97;4905238;29;20047;-83
2022/12/15 12:34:33;;;;;;;40.00;20.47;;;;;;;-4.60;100.00;100212.19;4906530;29;20075;-82
2022/12/15 12:37:12;;;;;;;35.43;19.03;;;;;;;-4.55;100.00;100207.16;4914869;29;20051;-83
2022/12/15 12:39:39;;;;;;;40.30;19.50;;;;;;;-4.56;100.00;100214.03;4911885;29;20845;-83
2022/12/15 12:42:15;;;;;;;38.23;19.03;;;;;;;-4.62;100.00;100218.13;4887354;29;20048;-83
2022/12/15 12:44:41;;;;;;;40.23;24.03;;;;;;;-4.60;100.00;100214.75;4928470;29;20039;-83
2022/12/15 12:47:16;;;;;;;48.03;26.43;;;;;;;-4.61;100.00;100225.03;4888579;29;20054;-82
2022/12/15 12:49:50;;;;;;;60.97;37.23;;;;;;;-4.56;100.00;100218.31;4903188;29;20046;-82
2022/12/15 12:52:21;;;;;;;39.05;20.92;;;;;;;-4.62;100.00;100223.28;4908152;29;20098;-82
2022/12/15 12:54:59;;;;;;;30.40;19.43;;;;;;;-4.73;100.00;100220.31;4910065;29;20038;-82
2022/12/15 12:57:34;;;;;;;37.93;19.53;;;;;;;-4.61;100.00;100215.59;4888353;29;20043;-82
2022/12/15 13:00:12;;;;;;;40.57;19.60;;;;;;;-4.48;100.00;100222.00;4909253;29;20138;-82
2022/12/15 13:02:45;;;;;;;37.57;20.20;;;;;;;-4.46;100.00;100211.75;4906820;29;20663;-82
2022/12/15 13:05:28;;;;;;;35.47;20.25;;;;;;;-4.45;100.00;100209.25;4909294;29;20043;-82
2022/12/15 13:08:04;;;;;;;39.30;19.67;;;;;;;-4.67;100.00;100202.50;4917637;29;20497;-81
2022/12/15 13:10:36;;;;;;;36.10;19.17;;;;;;;-4.73;100.00;100209.13;4924735;29;20699;-81
2022/12/15 13:13:35;;;;;;;39.03;19.00;;;;;;;-4.75;100.00;100211.66;4936603;29;20036;-82
2022/12/15 13:16:24;;;;;;;41.37;19.77;;;;;;;-4.77;100.00;100215.91;4917091;29;20047;-81
2022/12/15 13:19:05;;;;;;;36.90;18.30;;;;;;;-4.81;100.00;100207.16;4903368;29;20075;-81
2022/12/15 13:21:44;;;;;;;42.57;19.80;;;;;;;-4.79;100.00;100212.41;4927415;29;20067;-81
2022/12/15 13:24:34;;;;;;;37.17;19.50;;;;;;;-4.80;100.00;100220.94;4923966;29;20044;-81
2022/12/15 13:27:07;;;;;;;41.30;19.63;;;;;;;-4.71;100.00;100210.94;4911042;29;20067;-81
2022/12/15 13:29:35;;;;;;;36.00;21.50;;;;;;;-4.77;100.00;100208.16;4928408;29;20043;-82
2022/12/15 13:32:02;;;;;;;37.97;20.27;;;;;;;-4.85;100.00;100207.03;4912125;29;20058;-81
2022/12/15 13:34:37;;;;;;;39.13;19.90;;;;;;;-4.89;100.00;100207.75;4896869;29;20140;-81
2022/12/15 13:37:15;;;;;;;36.63;19.50;;;;;;;-4.91;100.00;100211.97;4912460;29;20043;-81
2022/12/15 13:39:54;;;;;;;41.70;18.77;;;;;;;-4.91;100.00;100217.13;4923463;29;20048;-81
2022/12/15 13:42:26;;;;;;;49.53;19.77;;;;;;;-4.91;100.00;100219.69;4926931;29;20051;-81
2022/12/15 13:45:23;;;;;;;37.53;18.87;;;;;;;-4.95;100.00;100215.28;4899252;29;20080;-81
2022/12/15 13:47:53;;;;;;;37.20;17.93;;;;;;;-4.94;100.00;100212.75;4937016;29;20078;-82
2022/12/15 13:50:52;;;;;;;38.67;17.90;;;;;;;-5.00;100.00;100219.38;4897333;29;20055;-82